createdAt,value
2023-01-08T00:01:23.401Z,75.36
2023-01-08T00:04:28.249Z,75.58
2023-01-08T00:07:33.429Z,77.08
2023-01-08T00:10:40.656Z,77.55
2023-01-08T00:13:45.749Z,77.25
2023-01-08T00:16:53.310Z,77.27
2023-01-08T00:19:58.595Z,76.68
2023-01-08T00:23:03.491Z,76.80
2023-01-08T00:26:10.671Z,77.76
2023-01-08T00:29:16.513Z,78.66
2023-01-08T00:32:23.146Z,78.33
2023-01-08T00:35:28.261Z,79.49
2023-01-08T00:38:33.444Z,78.88
2023-01-08T00:41:38.523Z,79.46
2023-01-08T00:44:43.252Z,79.52
2023-01-08T00:47:50.367Z,79.43
2023-01-08T00:50:56.279Z,79.59
2023-01-08T00:54:01.453Z,80.49
2023-01-08T00:57:06.940Z,81.41
2023-01-08T01:00:15.019Z,80.94
2023-01-08T01:03:23.225Z,81.06
2023-01-08T01:06:28.265Z,81.52
2023-01-08T01:09:33.232Z,81.00
2023-01-08T01:12:39.535Z,81.21
2023-01-08T01:15:44.610Z,81.00
2023-01-08T01:18:52.633Z,81.14
2023-01-08T01:21:57.551Z,82.33
2023-01-08T01:25:02.538Z,80.74
2023-01-08T01:28:07.659Z,81.57
2023-01-08T01:31:14.036Z,81.30
2023-01-08T01:34:20.469Z,81.46
2023-01-08T01:37:24.942Z,81.56
2023-01-08T01:40:29.900Z,81.59
2023-01-08T01:43:39.108Z,81.19
2023-01-08T01:46:43.915Z,82.36
2023-01-08T01:50:02.298Z,82.86
2023-01-08T01:53:11.199Z,82.82
2023-01-08T01:56:16.228Z,82.62
2023-01-08T01:59:21.369Z,83.21
2023-01-08T02:02:26.514Z,83.54
2023-01-08T02:05:39.126Z,83.92
2023-01-08T02:08:53.616Z,84.08
2023-01-08T02:12:18.542Z,83.86
2023-01-08T02:15:28.035Z,83.20
2023-01-08T02:18:40.417Z,83.87
2023-01-08T02:21:59.697Z,83.97
2023-01-08T02:25:12.488Z,83.67
2023-01-08T02:28:21.630Z,83.66
2023-01-08T02:31:28.788Z,83.73
2023-01-08T02:34:33.619Z,83.83
2023-01-08T02:37:39.308Z,83.99
2023-01-08T02:40:56.298Z,84.77
2023-01-08T02:44:03.081Z,84.83
2023-01-08T02:47:13.856Z,84.82
2023-01-08T02:50:26.385Z,84.94
2023-01-08T02:53:34.477Z,85.28
2023-01-08T02:56:43.755Z,84.59
2023-01-08T02:59:51.896Z,85.03
2023-01-08T03:03:08.006Z,84.71
2023-01-08T03:06:17.578Z,84.78
2023-01-08T03:09:22.609Z,84.62
2023-01-08T03:12:36.065Z,84.16
2023-01-08T03:15:48.095Z,84.49
2023-01-08T03:18:56.900Z,84.08
2023-01-08T03:22:03.820Z,84.57
2023-01-08T03:25:10.603Z,84.59
2023-01-08T03:28:19.785Z,84.51
2023-01-08T03:31:30.472Z,84.55
2023-01-08T03:34:39.308Z,84.00
2023-01-08T03:37:48.042Z,83.64
2023-01-08T03:40:57.155Z,83.49
2023-01-08T03:44:02.216Z,83.41
2023-01-08T03:47:11.767Z,83.43
2023-01-08T03:50:22.011Z,83.54
2023-01-08T03:53:26.959Z,83.41
2023-01-08T03:56:31.576Z,83.47
2023-01-08T03:59:36.660Z,83.12
2023-01-08T04:02:43.467Z,83.36
2023-01-08T04:05:47.771Z,83.16
2023-01-08T04:08:53.375Z,83.60
2023-01-08T04:11:58.527Z,83.27
2023-01-08T04:15:03.233Z,82.96
2023-01-08T04:18:09.693Z,83.45
2023-01-08T04:21:14.087Z,83.56
2023-01-08T04:24:19.074Z,83.72
2023-01-08T04:27:23.676Z,83.71
2023-01-08T04:30:28.485Z,82.99
2023-01-08T04:33:34.729Z,82.88
2023-01-08T04:36:39.605Z,83.35
2023-01-08T04:39:44.402Z,82.78
2023-01-08T04:42:49.338Z,82.63
2023-01-08T04:45:54.550Z,80.63
2023-01-08T04:49:00.749Z,77.18
2023-01-08T04:52:05.651Z,74.81
2023-01-08T04:55:12.293Z,71.90
2023-01-08T04:58:17.565Z,70.61
2023-01-08T05:01:23.615Z,69.65
2023-01-08T05:04:29.662Z,68.85
2023-01-08T05:07:34.539Z,67.94
2023-01-08T05:10:39.066Z,67.95
2023-01-08T05:13:43.848Z,68.02
2023-01-08T05:16:48.816Z,68.52
2023-01-08T05:19:54.972Z,68.64
2023-01-08T05:22:59.365Z,69.48
2023-01-08T05:26:06.392Z,69.17
2023-01-08T05:29:12.374Z,69.24
2023-01-08T05:32:19.231Z,69.54
2023-01-08T05:35:27.813Z,69.93
2023-01-08T05:38:37.487Z,70.60
2023-01-08T05:41:41.873Z,71.15
2023-01-08T05:44:46.367Z,71.28
2023-01-08T05:47:51.235Z,71.92
2023-01-08T05:50:57.711Z,72.08
2023-01-08T05:54:02.517Z,73.12
2023-01-08T05:57:07.564Z,73.92
2023-01-08T06:00:14.615Z,74.58
2023-01-08T06:03:30.496Z,76.09
2023-01-08T06:06:37.075Z,75.50
2023-01-08T06:09:41.857Z,75.16
2023-01-08T06:12:46.769Z,75.14
2023-01-08T06:15:51.785Z,75.13
2023-01-08T06:18:56.645Z,74.52
2023-01-08T06:22:02.838Z,74.51
2023-01-08T06:25:08.139Z,74.44
2023-01-08T06:28:12.810Z,74.58
2023-01-08T06:31:17.838Z,74.78
2023-01-08T06:34:23.382Z,74.72
2023-01-08T06:37:29.449Z,74.74
2023-01-08T06:40:34.314Z,74.20
2023-01-08T06:43:39.305Z,73.85
2023-01-08T06:46:44.221Z,73.80
2023-01-08T06:49:50.891Z,73.48
2023-01-08T06:52:58.362Z,73.63
2023-01-08T06:56:04.727Z,73.58
2023-01-08T06:59:09.451Z,73.09
2023-01-08T07:02:16.120Z,72.72
2023-01-08T07:05:21.503Z,73.14
2023-01-08T07:08:27.944Z,73.20
2023-01-08T07:11:32.810Z,73.04
2023-01-08T07:14:37.385Z,73.14
2023-01-08T07:17:45.092Z,73.03
2023-01-08T07:20:51.139Z,72.95
2023-01-08T07:23:57.670Z,73.09
2023-01-08T07:27:02.628Z,73.06
2023-01-08T07:30:11.027Z,72.47
2023-01-08T07:33:22.834Z,72.18
2023-01-08T07:36:29.177Z,73.49
2023-01-08T07:39:35.305Z,74.11
2023-01-08T07:42:40.076Z,75.26
2023-01-08T07:45:44.825Z,76.17
2023-01-08T07:48:49.712Z,76.55
2023-01-08T07:51:56.455Z,76.87
2023-01-08T07:55:02.807Z,77.86
2023-01-08T07:58:12.102Z,77.94
2023-01-08T08:01:17.702Z,78.53
2023-01-08T08:04:22.198Z,79.06
2023-01-08T08:07:28.043Z,79.43
2023-01-08T08:10:34.100Z,79.60
2023-01-08T08:13:43.295Z,80.53
2023-01-08T08:16:48.295Z,81.11
2023-01-08T08:19:53.193Z,80.97
2023-01-08T08:23:03.418Z,81.36
2023-01-08T08:26:10.134Z,81.50
2023-01-08T08:29:15.143Z,81.66
2023-01-08T08:32:19.977Z,81.65
2023-01-08T08:35:24.810Z,82.19
2023-01-08T08:38:29.876Z,82.06
2023-01-08T08:41:36.158Z,82.04
2023-01-08T08:44:42.857Z,82.09
2023-01-08T08:47:47.731Z,81.33
2023-01-08T08:50:52.586Z,82.08
2023-01-08T08:53:57.377Z,82.43
2023-01-08T08:57:06.043Z,82.73
2023-01-08T09:00:11.777Z,82.68
2023-01-08T09:03:18.709Z,82.05
2023-01-08T09:06:24.640Z,81.86
2023-01-08T09:09:30.219Z,81.37
2023-01-08T09:12:36.918Z,81.61
2023-01-08T09:15:42.143Z,81.36
2023-01-08T09:18:47.494Z,81.96
2023-01-08T09:21:53.060Z,81.09
2023-01-08T09:25:00.917Z,80.61
2023-01-08T09:28:09.456Z,80.49
2023-01-08T09:31:19.387Z,80.23
2023-01-08T09:34:28.563Z,80.61
2023-01-08T09:37:33.584Z,80.24
2023-01-08T09:40:47.090Z,79.38
2023-01-08T09:43:56.788Z,78.52
2023-01-08T09:47:02.988Z,79.01
2023-01-08T09:50:13.283Z,79.52
2023-01-08T09:53:20.457Z,79.10
2023-01-08T09:56:25.410Z,77.90
2023-01-08T09:59:32.811Z,77.88
2023-01-08T10:02:43.613Z,78.06
2023-01-08T10:05:48.165Z,77.79
2023-01-08T10:08:55.503Z,78.16
2023-01-08T10:12:03.814Z,77.57
2023-01-08T10:15:18.209Z,77.04
2023-01-08T10:18:28.701Z,77.52
2023-01-08T10:21:38.585Z,76.65
2023-01-08T10:24:43.502Z,77.22
2023-01-08T10:27:52.688Z,76.33
2023-01-08T10:31:05.940Z,76.26
2023-01-08T10:34:12.473Z,76.67
2023-01-08T10:37:22.922Z,77.22
2023-01-08T10:40:32.735Z,77.07
2023-01-08T10:43:44.284Z,76.36
2023-01-08T10:46:53.097Z,76.31
2023-01-08T10:49:58.951Z,76.71
2023-01-08T10:53:07.005Z,76.38
2023-01-08T10:56:23.921Z,76.00
2023-01-08T10:59:29.485Z,75.97
2023-01-08T11:02:39.808Z,76.21
2023-01-08T11:05:45.425Z,75.60
2023-01-08T11:08:55.280Z,74.72
2023-01-08T11:12:00.903Z,74.26
2023-01-08T11:15:08.347Z,75.77
2023-01-08T11:18:21.702Z,75.51
2023-01-08T11:21:29.172Z,75.14
2023-01-08T11:24:36.807Z,74.30
2023-01-08T11:27:45.117Z,74.51
2023-01-08T11:30:57.182Z,73.58
2023-01-08T11:34:14.243Z,74.40
2023-01-08T11:37:23.192Z,73.67
2023-01-08T11:40:37.390Z,73.35
2023-01-08T11:43:57.329Z,72.86
2023-01-08T11:47:11.992Z,72.73
2023-01-08T11:50:24.333Z,72.48
2023-01-08T11:53:38.053Z,72.95
2023-01-08T11:57:00.166Z,72.26
2023-01-08T12:00:17.342Z,72.43
2023-01-08T12:03:33.647Z,73.08
2023-01-08T12:06:47.124Z,73.32
2023-01-08T12:09:59.722Z,73.57
2023-01-08T12:13:17.196Z,73.83
2023-01-08T12:16:41.790Z,73.47
2023-01-08T12:20:03.060Z,73.86
2023-01-08T12:23:22.181Z,73.60
2023-01-08T12:26:32.497Z,73.98
2023-01-08T12:30:02.137Z,73.87
2023-01-08T12:33:11.322Z,73.25
2023-01-08T12:36:22.046Z,72.86
2023-01-08T12:39:32.289Z,72.26
2023-01-08T12:42:46.767Z,72.72
2023-01-08T12:45:58.782Z,72.47
2023-01-08T12:49:04.272Z,72.76
2023-01-08T12:52:18.776Z,72.98
2023-01-08T12:55:35.548Z,72.45
2023-01-08T12:58:53.404Z,72.82
2023-01-08T13:02:05.589Z,72.52
2023-01-08T13:05:15.029Z,72.65
2023-01-08T13:08:33.934Z,72.17
2023-01-08T13:11:42.820Z,73.23
2023-01-08T13:14:54.336Z,71.94
2023-01-08T13:18:04.774Z,71.78
2023-01-08T13:21:13.922Z,72.86
2023-01-08T13:24:33.167Z,73.80
2023-01-08T13:27:39.812Z,73.11
2023-01-08T13:30:48.757Z,72.24
2023-01-08T13:33:54.319Z,72.22
2023-01-08T13:37:00.969Z,72.62
2023-01-08T13:40:07.448Z,73.21
2023-01-08T13:43:18.464Z,72.64
2023-01-08T13:46:25.757Z,72.00
2023-01-08T13:49:35.417Z,71.95
2023-01-08T13:52:46.416Z,71.54
2023-01-08T13:56:01.450Z,71.79
2023-01-08T13:59:08.588Z,71.24
2023-01-08T14:02:31.439Z,69.15
2023-01-08T14:05:37.456Z,63.41
2023-01-08T14:16:18.670Z,55.80
2023-01-08T14:19:25.626Z,57.69
2023-01-08T14:22:35.628Z,57.78
2023-01-08T14:25:42.126Z,58.90
2023-01-08T14:28:54.954Z,61.08
2023-01-08T14:32:03.336Z,62.56
2023-01-08T14:35:10.773Z,64.11
2023-01-08T14:38:17.484Z,64.71
2023-01-08T14:41:50.053Z,65.78
2023-01-08T14:44:57.872Z,66.91
2023-01-08T14:48:11.176Z,67.91
2023-01-08T14:51:18.833Z,68.58
2023-01-08T14:54:39.781Z,68.80
2023-01-08T14:57:50.341Z,68.97
2023-01-08T15:01:01.626Z,69.09
2023-01-08T15:04:18.191Z,68.77
2023-01-08T15:07:28.176Z,69.22
2023-01-08T15:10:41.746Z,69.68
2023-01-08T15:13:47.319Z,69.75
2023-01-08T15:16:55.553Z,70.15
2023-01-08T15:20:02.977Z,69.05
2023-01-08T15:23:08.223Z,70.84
2023-01-08T15:26:18.802Z,70.76
2023-01-08T15:29:29.501Z,70.65
2023-01-08T15:32:37.549Z,71.92
2023-01-08T15:35:43.585Z,72.21
2023-01-08T15:38:48.780Z,72.15
2023-01-08T15:42:18.504Z,72.79
2023-01-08T15:45:25.353Z,73.34
2023-01-08T15:48:33.513Z,73.95
2023-01-08T15:51:45.904Z,74.22
2023-01-08T15:54:52.924Z,73.12
2023-01-08T15:57:57.758Z,72.74
2023-01-08T16:01:02.235Z,73.35
2023-01-08T16:04:07.094Z,73.60
2023-01-08T16:07:13.182Z,73.40
2023-01-08T16:10:20.930Z,73.53
2023-01-08T16:13:26.247Z,73.61
2023-01-08T16:16:31.655Z,73.97
2023-01-08T16:19:36.707Z,75.15
2023-01-08T16:22:44.185Z,75.92
2023-01-08T16:25:50.717Z,76.87
2023-01-08T16:28:55.583Z,75.96
2023-01-08T16:32:01.751Z,75.69
2023-01-08T16:35:07.489Z,76.52
2023-01-08T16:38:16.805Z,77.75
2023-01-08T16:41:21.736Z,77.62
2023-01-08T16:44:29.211Z,78.42
2023-01-08T16:47:36.034Z,78.58
2023-01-08T16:50:44.277Z,79.06
2023-01-08T16:53:52.327Z,78.83
2023-01-08T16:56:59.901Z,78.70
2023-01-08T17:00:04.650Z,78.90
2023-01-08T17:03:09.466Z,79.46
2023-01-08T17:06:16.726Z,79.87
2023-01-08T17:09:23.287Z,80.21
2023-01-08T17:12:28.327Z,80.46
2023-01-08T17:15:33.357Z,80.51
2023-01-08T17:18:39.148Z,80.15
2023-01-08T17:21:45.055Z,79.55
2023-01-08T17:24:51.956Z,79.95
2023-01-08T17:27:56.731Z,79.63
2023-01-08T17:31:05.086Z,79.48
2023-01-08T17:34:17.975Z,79.87
2023-01-08T17:50:04.314Z,81.25
2023-01-08T17:53:11.709Z,81.59
2023-01-08T17:56:19.297Z,81.19
2023-01-08T17:59:27.079Z,81.42
2023-01-08T18:02:32.615Z,79.58
2023-01-08T18:05:40.471Z,79.18
2023-01-08T18:08:47.030Z,78.47
2023-01-08T18:11:53.609Z,78.51
2023-01-08T18:15:08.474Z,77.94
2023-01-08T18:18:19.938Z,78.24
2023-01-08T18:21:35.896Z,77.92
2023-01-08T18:24:55.428Z,78.09
2023-01-08T18:28:17.507Z,78.54
2023-01-08T18:31:26.293Z,78.19
2023-01-08T18:34:35.845Z,77.96
2023-01-08T18:37:46.387Z,77.50
2023-01-08T18:40:58.299Z,78.42
2023-01-08T18:44:23.206Z,78.44
2023-01-08T18:47:37.159Z,78.24
2023-01-08T18:50:47.940Z,78.66
2023-01-08T18:53:56.812Z,79.20
2023-01-08T18:57:11.779Z,79.15
2023-01-08T19:00:24.876Z,79.53
2023-01-08T19:03:34.260Z,80.05
2023-01-08T19:06:44.662Z,79.96
2023-01-08T19:10:24.739Z,80.18
2023-01-08T19:13:38.089Z,80.89
2023-01-08T19:16:55.786Z,81.06
2023-01-08T19:20:10.247Z,80.93
2023-01-08T19:23:17.870Z,80.91
2023-01-08T19:26:25.321Z,80.57
2023-01-08T19:29:36.687Z,80.96
2023-01-08T19:32:43.601Z,80.24
2023-01-08T19:35:53.589Z,80.49
2023-01-08T19:39:00.038Z,80.46
2023-01-08T19:42:27.130Z,80.80
2023-01-08T19:45:33.787Z,80.75
2023-01-08T19:48:41.597Z,80.74
2023-01-08T19:51:48.154Z,80.88
2023-01-08T19:55:01.239Z,81.58
2023-01-08T19:58:10.818Z,81.33
2023-01-08T20:01:18.733Z,81.78
2023-01-08T20:04:25.531Z,81.98
2023-01-08T20:07:33.508Z,82.47
2023-01-08T20:10:41.873Z,83.46
2023-01-08T20:13:50.505Z,83.67
2023-01-08T20:16:57.567Z,83.97
2023-01-08T20:20:05.007Z,85.06
2023-01-08T20:23:15.349Z,84.96
2023-01-08T20:26:22.175Z,83.08
2023-01-08T20:29:29.492Z,82.67
2023-01-08T20:32:35.188Z,83.32
2023-01-08T20:35:39.984Z,84.06
2023-01-08T20:39:01.661Z,84.51
2023-01-08T20:42:10.140Z,85.11
2023-01-08T20:45:20.690Z,85.69
2023-01-08T20:48:30.008Z,86.12
2023-01-08T20:51:44.260Z,86.98
2023-01-08T20:55:01.141Z,87.62
2023-01-08T20:58:04.421Z,87.26
2023-01-08T21:01:11.631Z,87.86
2023-01-08T21:04:16.231Z,87.87
2023-01-08T21:07:18.925Z,88.71
2023-01-08T21:10:22.921Z,89.78
2023-01-08T21:13:25.680Z,89.74
2023-01-08T21:16:36.686Z,89.54
2023-01-08T21:19:39.375Z,89.26
2023-01-08T21:22:42.160Z,90.96
2023-01-08T21:25:46.243Z,91.41
2023-01-08T21:28:55.091Z,90.87
2023-01-08T21:31:57.827Z,91.19
2023-01-08T21:35:00.555Z,90.80
2023-01-08T21:38:07.551Z,91.22
2023-01-08T21:41:34.643Z,91.47
2023-01-08T21:44:54.731Z,92.31
2023-01-08T21:47:58.837Z,92.25
2023-01-08T21:51:01.608Z,92.71
2023-01-08T21:54:04.120Z,93.06
2023-01-08T21:57:09.238Z,93.36
2023-01-08T22:00:13.595Z,93.73
2023-01-08T22:03:16.658Z,94.04
2023-01-08T22:06:19.320Z,94.54
2023-01-08T22:09:21.957Z,94.42
2023-01-08T22:12:26.118Z,95.51
2023-01-08T22:15:28.755Z,96.10
2023-01-08T22:18:32.226Z,97.31
2023-01-08T22:21:34.886Z,97.64
2023-01-08T22:24:38.084Z,97.29
2023-01-08T22:27:42.104Z,97.18
2023-01-08T22:30:44.778Z,96.86
2023-01-08T22:33:47.445Z,97.08
2023-01-08T22:36:51.441Z,96.77
2023-01-08T22:39:54.149Z,96.64
2023-01-08T22:42:58.210Z,96.65
2023-01-08T22:46:01.260Z,96.94
2023-01-08T22:49:04.502Z,97.03
2023-01-08T22:52:08.228Z,97.08
2023-01-08T22:55:11.233Z,97.25
2023-01-08T22:58:15.278Z,97.04
2023-01-08T23:01:20.036Z,96.88
2023-01-08T23:04:22.940Z,96.37
2023-01-08T23:07:25.626Z,95.99
2023-01-08T23:10:28.683Z,96.27
2023-01-08T23:13:32.701Z,96.07
2023-01-08T23:16:35.830Z,95.49
2023-01-08T23:19:38.597Z,95.42
2023-01-08T23:22:41.500Z,95.05
2023-01-08T23:25:44.257Z,95.27
2023-01-08T23:28:49.182Z,95.39
2023-01-08T23:31:51.946Z,95.29
2023-01-08T23:34:54.818Z,95.56
2023-01-08T23:37:57.500Z,95.71
2023-01-08T23:41:00.367Z,95.85
2023-01-08T23:44:06.382Z,96.19
2023-01-08T23:47:09.091Z,95.66
2023-01-08T23:50:12.496Z,95.84
2023-01-08T23:53:15.145Z,96.21
2023-01-08T23:56:17.939Z,95.25
2023-01-08T23:59:22.229Z,95.56
